sensor_id;sensor_type;location;lat;lon;timestamp;P1;durP1;ratioP1;P2;durP2;ratioP2
8652;SDS011;4364;52.426;9.424;2023-02-20T00:00:10;11.00;;;7.97;;
8652;SDS011;4364;52.426;9.424;2023-02-20T00:02:43;10.80;;;7.60;;
8652;SDS011;4364;52.426;9.424;2023-02-20T00:05:11;11.00;;;7.10;;
8652;SDS011;4364;52.426;9.424;2023-02-20T00:07:38;11.60;;;7.27;;
8652;SDS011;4364;52.426;9.424;2023-02-20T00:10:05;10.93;;;7.17;;
8652;SDS011;4364;52.426;9.424;2023-02-20T00:12:32;11.50;;;6.60;;
8652;SDS011;4364;52.426;9.424;2023-02-20T00:14:59;10.87;;;6.33;;
8652;SDS011;4364;52.426;9.424;2023-02-20T00:17:25;8.53;;;5.87;;
8652;SDS011;4364;52.426;9.424;2023-02-20T00:19:54;8.37;;;5.90;;
8652;SDS011;4364;52.426;9.424;2023-02-20T00:22:21;8.33;;;6.00;;
8652;SDS011;4364;52.426;9.424;2023-02-20T00:24:48;7.90;;;5.60;;
8652;SDS011;4364;52.426;9.424;2023-02-20T00:27:15;9.77;;;5.97;;
8652;SDS011;4364;52.426;9.424;2023-02-20T00:29:43;9.27;;;6.60;;
8652;SDS011;4364;52.426;9.424;2023-02-20T00:32:10;8.77;;;6.43;;
8652;SDS011;4364;52.426;9.424;2023-02-20T00:34:37;9.50;;;7.00;;
8652;SDS011;4364;52.426;9.424;2023-02-20T00:37:04;9.63;;;6.50;;
8652;SDS011;4364;52.426;9.424;2023-02-20T00:39:31;8.87;;;6.70;;
8652;SDS011;4364;52.426;9.424;2023-02-20T00:41:57;10.90;;;7.23;;
8652;SDS011;4364;52.426;9.424;2023-02-20T00:44:24;8.73;;;6.67;;
8652;SDS011;4364;52.426;9.424;2023-02-20T00:46:52;9.30;;;6.27;;
8652;SDS011;4364;52.426;9.424;2023-02-20T00:49:19;10.63;;;7.27;;
8652;SDS011;4364;52.426;9.424;2023-02-20T00:51:46;10.50;;;7.30;;
8652;SDS011;4364;52.426;9.424;2023-02-20T00:54:13;10.27;;;7.37;;
8652;SDS011;4364;52.426;9.424;2023-02-20T00:56:40;10.03;;;7.03;;
8652;SDS011;4364;52.426;9.424;2023-02-20T00:59:06;10.07;;;7.87;;
8652;SDS011;4364;52.426;9.424;2023-02-20T01:01:33;10.47;;;7.90;;
8652;SDS011;4364;52.426;9.424;2023-02-20T01:03:59;10.10;;;7.80;;
8652;SDS011;4364;52.426;9.424;2023-02-20T01:06:26;10.10;;;7.90;;
8652;SDS011;4364;52.426;9.424;2023-02-20T01:08:53;11.83;;;8.37;;
8652;SDS011;4364;52.426;9.424;2023-02-20T01:11:19;11.73;;;8.07;;
8652;SDS011;4364;52.426;9.424;2023-02-20T01:13:46;10.77;;;8.33;;
8652;SDS011;4364;52.426;9.424;2023-02-20T01:16:12;10.70;;;8.23;;
8652;SDS011;4364;52.426;9.424;2023-02-20T01:18:41;10.90;;;8.23;;
8652;SDS011;4364;52.426;9.424;2023-02-20T01:21:07;9.87;;;7.63;;
8652;SDS011;4364;52.426;9.424;2023-02-20T01:23:34;10.90;;;7.63;;
8652;SDS011;4364;52.426;9.424;2023-02-20T01:26:00;10.47;;;7.23;;
8652;SDS011;4364;52.426;9.424;2023-02-20T01:28:27;8.53;;;7.17;;
8652;SDS011;4364;52.426;9.424;2023-02-20T01:30:54;10.97;;;7.30;;
8652;SDS011;4364;52.426;9.424;2023-02-20T01:33:20;9.60;;;7.00;;
8652;SDS011;4364;52.426;9.424;2023-02-20T01:35:47;10.77;;;7.20;;
8652;SDS011;4364;52.426;9.424;2023-02-20T01:38:13;8.03;;;6.40;;
8652;SDS011;4364;52.426;9.424;2023-02-20T01:40:45;9.17;;;6.80;;
8652;SDS011;4364;52.426;9.424;2023-02-20T01:43:14;8.73;;;6.53;;
8652;SDS011;4364;52.426;9.424;2023-02-20T01:45:42;9.40;;;6.47;;
8652;SDS011;4364;52.426;9.424;2023-02-20T01:51:04;7.17;;;6.17;;
8652;SDS011;4364;52.426;9.424;2023-02-20T01:53:31;8.87;;;6.20;;
8652;SDS011;4364;52.426;9.424;2023-02-20T01:55:59;9.80;;;6.47;;
8652;SDS011;4364;52.426;9.424;2023-02-20T01:58:37;9.80;;;6.83;;
8652;SDS011;4364;52.426;9.424;2023-02-20T02:01:09;10.03;;;6.87;;
8652;SDS011;4364;52.426;9.424;2023-02-20T02:03:38;10.53;;;7.30;;
8652;SDS011;4364;52.426;9.424;2023-02-20T02:06:10;9.27;;;7.60;;
8652;SDS011;4364;52.426;9.424;2023-02-20T02:08:39;9.30;;;7.13;;
8652;SDS011;4364;52.426;9.424;2023-02-20T02:11:20;10.80;;;7.33;;
8652;SDS011;4364;52.426;9.424;2023-02-20T02:13:49;10.97;;;7.53;;
8652;SDS011;4364;52.426;9.424;2023-02-20T02:16:35;10.10;;;7.90;;
8652;SDS011;4364;52.426;9.424;2023-02-20T02:22:33;10.33;;;8.10;;
8652;SDS011;4364;52.426;9.424;2023-02-20T02:36:12;14.77;;;9.70;;
8652;SDS011;4364;52.426;9.424;2023-02-20T02:38:50;14.10;;;10.57;;
8652;SDS011;4364;52.426;9.424;2023-02-20T02:41:48;14.73;;;10.57;;
8652;SDS011;4364;52.426;9.424;2023-02-20T02:44:24;13.13;;;10.20;;
8652;SDS011;4364;52.426;9.424;2023-02-20T02:46:59;15.20;;;10.23;;
8652;SDS011;4364;52.426;9.424;2023-02-20T02:49:33;16.80;;;10.53;;
8652;SDS011;4364;52.426;9.424;2023-02-20T02:52:05;14.40;;;10.27;;
8652;SDS011;4364;52.426;9.424;2023-02-20T02:54:34;15.17;;;10.67;;
8652;SDS011;4364;52.426;9.424;2023-02-20T02:57:15;12.90;;;9.50;;
8652;SDS011;4364;52.426;9.424;2023-02-20T02:59:46;14.00;;;9.83;;
8652;SDS011;4364;52.426;9.424;2023-02-20T03:02:19;15.33;;;9.77;;
8652;SDS011;4364;52.426;9.424;2023-02-20T03:04:49;17.60;;;10.63;;
8652;SDS011;4364;52.426;9.424;2023-02-20T03:07:18;13.67;;;9.47;;
8652;SDS011;4364;52.426;9.424;2023-02-20T03:09:47;14.77;;;10.53;;
8652;SDS011;4364;52.426;9.424;2023-02-20T03:12:19;13.90;;;9.83;;
8652;SDS011;4364;52.426;9.424;2023-02-20T03:15:08;14.57;;;10.03;;
8652;SDS011;4364;52.426;9.424;2023-02-20T03:20:48;14.67;;;9.93;;
8652;SDS011;4364;52.426;9.424;2023-02-20T03:23:23;15.77;;;9.70;;
8652;SDS011;4364;52.426;9.424;2023-02-20T03:26:01;14.60;;;9.60;;
8652;SDS011;4364;52.426;9.424;2023-02-20T03:28:35;14.73;;;10.20;;
8652;SDS011;4364;52.426;9.424;2023-02-20T03:31:10;13.87;;;10.27;;
8652;SDS011;4364;52.426;9.424;2023-02-20T03:33:44;18.53;;;11.00;;
8652;SDS011;4364;52.426;9.424;2023-02-20T03:36:45;16.33;;;11.00;;
8652;SDS011;4364;52.426;9.424;2023-02-20T03:39:40;17.23;;;11.27;;
8652;SDS011;4364;52.426;9.424;2023-02-20T03:42:31;16.10;;;10.47;;
8652;SDS011;4364;52.426;9.424;2023-02-20T03:45:27;17.00;;;11.47;;
8652;SDS011;4364;52.426;9.424;2023-02-20T03:47:58;18.00;;;12.27;;
8652;SDS011;4364;52.426;9.424;2023-02-20T03:50:31;17.03;;;11.97;;
8652;SDS011;4364;52.426;9.424;2023-02-20T03:52:58;16.33;;;11.70;;
8652;SDS011;4364;52.426;9.424;2023-02-20T03:55:26;19.30;;;12.50;;
8652;SDS011;4364;52.426;9.424;2023-02-20T03:57:56;19.67;;;13.30;;
8652;SDS011;4364;52.426;9.424;2023-02-20T04:00:30;21.33;;;13.67;;
8652;SDS011;4364;52.426;9.424;2023-02-20T04:03:00;22.23;;;14.40;;
8652;SDS011;4364;52.426;9.424;2023-02-20T04:05:37;21.23;;;14.50;;
8652;SDS011;4364;52.426;9.424;2023-02-20T04:08:13;23.97;;;15.53;;
8652;SDS011;4364;52.426;9.424;2023-02-20T04:11:07;20.33;;;14.73;;
8652;SDS011;4364;52.426;9.424;2023-02-20T04:13:36;24.20;;;16.03;;
8652;SDS011;4364;52.426;9.424;2023-02-20T04:16:04;24.70;;;15.57;;
8652;SDS011;4364;52.426;9.424;2023-02-20T04:18:32;24.30;;;16.53;;
8652;SDS011;4364;52.426;9.424;2023-02-20T04:21:01;27.93;;;18.00;;
8652;SDS011;4364;52.426;9.424;2023-02-20T04:23:37;23.40;;;17.03;;
8652;SDS011;4364;52.426;9.424;2023-02-20T04:26:12;25.70;;;17.17;;
8652;SDS011;4364;52.426;9.424;2023-02-20T04:28:45;23.60;;;16.10;;
8652;SDS011;4364;52.426;9.424;2023-02-20T04:31:14;26.90;;;16.83;;
8652;SDS011;4364;52.426;9.424;2023-02-20T04:33:42;24.37;;;16.63;;
8652;SDS011;4364;52.426;9.424;2023-02-20T04:36:14;26.13;;;16.20;;
8652;SDS011;4364;52.426;9.424;2023-02-20T04:38:41;26.73;;;16.73;;
8652;SDS011;4364;52.426;9.424;2023-02-20T04:41:11;24.03;;;15.93;;
8652;SDS011;4364;52.426;9.424;2023-02-20T04:43:39;24.97;;;16.20;;
8652;SDS011;4364;52.426;9.424;2023-02-20T04:46:05;24.77;;;15.67;;
8652;SDS011;4364;52.426;9.424;2023-02-20T04:48:33;22.47;;;15.27;;
8652;SDS011;4364;52.426;9.424;2023-02-20T04:51:01;24.53;;;15.73;;
8652;SDS011;4364;52.426;9.424;2023-02-20T04:53:30;22.80;;;14.90;;
8652;SDS011;4364;52.426;9.424;2023-02-20T04:55:57;23.83;;;14.90;;
8652;SDS011;4364;52.426;9.424;2023-02-20T04:58:25;23.60;;;15.00;;
8652;SDS011;4364;52.426;9.424;2023-02-20T05:00:56;23.07;;;14.67;;
8652;SDS011;4364;52.426;9.424;2023-02-20T05:03:22;23.80;;;15.17;;
8652;SDS011;4364;52.426;9.424;2023-02-20T05:05:49;23.23;;;14.40;;
8652;SDS011;4364;52.426;9.424;2023-02-20T05:08:16;19.77;;;13.07;;
8652;SDS011;4364;52.426;9.424;2023-02-20T05:10:42;20.33;;;13.27;;
8652;SDS011;4364;52.426;9.424;2023-02-20T05:13:09;23.97;;;13.17;;
8652;SDS011;4364;52.426;9.424;2023-02-20T05:15:35;21.40;;;13.07;;
8652;SDS011;4364;52.426;9.424;2023-02-20T05:18:02;20.47;;;13.07;;
8652;SDS011;4364;52.426;9.424;2023-02-20T05:20:28;20.10;;;11.97;;
8652;SDS011;4364;52.426;9.424;2023-02-20T05:23:13;21.40;;;12.83;;
8652;SDS011;4364;52.426;9.424;2023-02-20T05:25:40;22.27;;;12.23;;
8652;SDS011;4364;52.426;9.424;2023-02-20T05:28:06;18.73;;;11.33;;
8652;SDS011;4364;52.426;9.424;2023-02-20T05:30:33;21.40;;;12.53;;
8652;SDS011;4364;52.426;9.424;2023-02-20T05:32:59;20.87;;;11.13;;
8652;SDS011;4364;52.426;9.424;2023-02-20T05:35:26;18.70;;;11.13;;
8652;SDS011;4364;52.426;9.424;2023-02-20T05:37:52;19.37;;;11.60;;
8652;SDS011;4364;52.426;9.424;2023-02-20T05:40:19;20.60;;;11.13;;
8652;SDS011;4364;52.426;9.424;2023-02-20T05:42:46;20.13;;;11.17;;
8652;SDS011;4364;52.426;9.424;2023-02-20T05:45:13;18.67;;;11.47;;
8652;SDS011;4364;52.426;9.424;2023-02-20T05:47:40;18.60;;;10.80;;
8652;SDS011;4364;52.426;9.424;2023-02-20T05:50:06;18.60;;;10.63;;
8652;SDS011;4364;52.426;9.424;2023-02-20T05:52:33;20.77;;;11.37;;
8652;SDS011;4364;52.426;9.424;2023-02-20T05:54:59;20.00;;;10.90;;
8652;SDS011;4364;52.426;9.424;2023-02-20T05:57:26;19.50;;;10.47;;
8652;SDS011;4364;52.426;9.424;2023-02-20T05:59:53;21.23;;;11.17;;
8652;SDS011;4364;52.426;9.424;2023-02-20T06:02:20;19.17;;;10.30;;
8652;SDS011;4364;52.426;9.424;2023-02-20T06:04:46;19.23;;;10.73;;
8652;SDS011;4364;52.426;9.424;2023-02-20T06:07:13;20.83;;;10.27;;
8652;SDS011;4364;52.426;9.424;2023-02-20T06:09:42;17.43;;;9.50;;
8652;SDS011;4364;52.426;9.424;2023-02-20T06:12:10;21.03;;;10.40;;
8652;SDS011;4364;52.426;9.424;2023-02-20T06:14:36;17.83;;;10.70;;
8652;SDS011;4364;52.426;9.424;2023-02-20T06:17:03;18.93;;;10.10;;
8652;SDS011;4364;52.426;9.424;2023-02-20T06:19:29;19.07;;;9.63;;
8652;SDS011;4364;52.426;9.424;2023-02-20T06:21:56;18.87;;;10.07;;
8652;SDS011;4364;52.426;9.424;2023-02-20T06:24:26;18.83;;;10.10;;
8652;SDS011;4364;52.426;9.424;2023-02-20T06:26:52;18.33;;;10.20;;
8652;SDS011;4364;52.426;9.424;2023-02-20T06:29:19;19.60;;;11.07;;
8652;SDS011;4364;52.426;9.424;2023-02-20T06:31:46;18.53;;;10.63;;
8652;SDS011;4364;52.426;9.424;2023-02-20T06:34:13;18.93;;;10.57;;
8652;SDS011;4364;52.426;9.424;2023-02-20T06:36:41;21.27;;;11.40;;
8652;SDS011;4364;52.426;9.424;2023-02-20T06:39:08;23.00;;;11.47;;
8652;SDS011;4364;52.426;9.424;2023-02-20T06:41:36;23.17;;;11.50;;
8652;SDS011;4364;52.426;9.424;2023-02-20T06:44:02;19.80;;;10.87;;
8652;SDS011;4364;52.426;9.424;2023-02-20T06:46:30;20.03;;;11.07;;
8652;SDS011;4364;52.426;9.424;2023-02-20T06:48:57;21.00;;;11.43;;
8652;SDS011;4364;52.426;9.424;2023-02-20T06:51:29;20.47;;;11.77;;
8652;SDS011;4364;52.426;9.424;2023-02-20T06:53:57;20.93;;;12.17;;
8652;SDS011;4364;52.426;9.424;2023-02-20T06:56:25;21.80;;;12.67;;
8652;SDS011;4364;52.426;9.424;2023-02-20T06:58:54;25.70;;;13.37;;
8652;SDS011;4364;52.426;9.424;2023-02-20T07:01:22;24.70;;;13.07;;
8652;SDS011;4364;52.426;9.424;2023-02-20T07:03:52;24.23;;;13.77;;
8652;SDS011;4364;52.426;9.424;2023-02-20T07:06:21;24.67;;;15.30;;
8652;SDS011;4364;52.426;9.424;2023-02-20T07:08:49;23.70;;;15.70;;
8652;SDS011;4364;52.426;9.424;2023-02-20T07:11:17;22.13;;;14.87;;
8652;SDS011;4364;52.426;9.424;2023-02-20T07:13:45;26.10;;;16.73;;
8652;SDS011;4364;52.426;9.424;2023-02-20T07:16:12;29.83;;;16.80;;
8652;SDS011;4364;52.426;9.424;2023-02-20T07:18:39;26.23;;;17.90;;
8652;SDS011;4364;52.426;9.424;2023-02-20T07:21:05;25.70;;;17.53;;
8652;SDS011;4364;52.426;9.424;2023-02-20T07:23:32;33.00;;;19.50;;
8652;SDS011;4364;52.426;9.424;2023-02-20T07:25:59;31.97;;;19.77;;
8652;SDS011;4364;52.426;9.424;2023-02-20T07:28:25;32.43;;;20.50;;
8652;SDS011;4364;52.426;9.424;2023-02-20T07:30:52;32.40;;;21.13;;
8652;SDS011;4364;52.426;9.424;2023-02-20T07:33:19;30.40;;;20.93;;
8652;SDS011;4364;52.426;9.424;2023-02-20T07:35:45;33.20;;;22.23;;
8652;SDS011;4364;52.426;9.424;2023-02-20T07:38:14;32.10;;;21.87;;
8652;SDS011;4364;52.426;9.424;2023-02-20T07:40:40;38.73;;;23.33;;
8652;SDS011;4364;52.426;9.424;2023-02-20T07:43:07;37.47;;;23.93;;
8652;SDS011;4364;52.426;9.424;2023-02-20T07:45:36;33.27;;;23.50;;
8652;SDS011;4364;52.426;9.424;2023-02-20T07:48:04;34.23;;;23.93;;
8652;SDS011;4364;52.426;9.424;2023-02-20T07:50:30;37.50;;;25.03;;
8652;SDS011;4364;52.426;9.424;2023-02-20T07:52:57;40.00;;;26.03;;
8652;SDS011;4364;52.426;9.424;2023-02-20T07:55:23;40.80;;;26.53;;
8652;SDS011;4364;52.426;9.424;2023-02-20T07:57:50;37.87;;;25.53;;
8652;SDS011;4364;52.426;9.424;2023-02-20T08:00:20;38.93;;;25.93;;
8652;SDS011;4364;52.426;9.424;2023-02-20T08:02:47;39.37;;;26.37;;
8652;SDS011;4364;52.426;9.424;2023-02-20T08:05:13;39.10;;;26.30;;
8652;SDS011;4364;52.426;9.424;2023-02-20T08:07:44;38.73;;;25.47;;
8652;SDS011;4364;52.426;9.424;2023-02-20T08:10:12;37.20;;;24.70;;
8652;SDS011;4364;52.426;9.424;2023-02-20T08:12:39;36.30;;;26.10;;
8652;SDS011;4364;52.426;9.424;2023-02-20T08:15:06;39.63;;;25.87;;
8652;SDS011;4364;52.426;9.424;2023-02-20T08:17:35;40.07;;;26.37;;
8652;SDS011;4364;52.426;9.424;2023-02-20T08:20:12;36.33;;;25.40;;
8652;SDS011;4364;52.426;9.424;2023-02-20T08:22:42;39.03;;;25.43;;
8652;SDS011;4364;52.426;9.424;2023-02-20T08:25:09;38.90;;;25.73;;
8652;SDS011;4364;52.426;9.424;2023-02-20T08:27:35;38.93;;;25.73;;
8652;SDS011;4364;52.426;9.424;2023-02-20T08:30:04;35.67;;;24.90;;
8652;SDS011;4364;52.426;9.424;2023-02-20T08:32:32;41.67;;;25.47;;
8652;SDS011;4364;52.426;9.424;2023-02-20T08:34:58;33.27;;;23.07;;
8652;SDS011;4364;52.426;9.424;2023-02-20T08:37:26;37.07;;;23.63;;
8652;SDS011;4364;52.426;9.424;2023-02-20T08:39:53;32.50;;;23.00;;
8652;SDS011;4364;52.426;9.424;2023-02-20T08:42:19;33.70;;;22.33;;
8652;SDS011;4364;52.426;9.424;2023-02-20T08:44:46;34.43;;;22.80;;
8652;SDS011;4364;52.426;9.424;2023-02-20T08:47:12;36.40;;;22.53;;
8652;SDS011;4364;52.426;9.424;2023-02-20T08:49:39;34.20;;;22.47;;
8652;SDS011;4364;52.426;9.424;2023-02-20T08:52:05;29.87;;;19.40;;
8652;SDS011;4364;52.426;9.424;2023-02-20T08:54:32;39.50;;;21.03;;
8652;SDS011;4364;52.426;9.424;2023-02-20T08:56:58;34.50;;;20.87;;
8652;SDS011;4364;52.426;9.424;2023-02-20T08:59:25;31.40;;;20.07;;
8652;SDS011;4364;52.426;9.424;2023-02-20T09:01:51;31.17;;;20.07;;
8652;SDS011;4364;52.426;9.424;2023-02-20T09:04:18;31.53;;;19.27;;
8652;SDS011;4364;52.426;9.424;2023-02-20T09:06:46;27.63;;;18.60;;
8652;SDS011;4364;52.426;9.424;2023-02-20T09:09:13;34.03;;;19.40;;
8652;SDS011;4364;52.426;9.424;2023-02-20T09:11:40;27.60;;;19.07;;
8652;SDS011;4364;52.426;9.424;2023-02-20T09:14:06;27.73;;;18.07;;
8652;SDS011;4364;52.426;9.424;2023-02-20T09:16:34;27.83;;;18.50;;
8652;SDS011;4364;52.426;9.424;2023-02-20T09:19:01;28.77;;;18.07;;
8652;SDS011;4364;52.426;9.424;2023-02-20T09:21:29;33.03;;;19.00;;
8652;SDS011;4364;52.426;9.424;2023-02-20T09:23:55;30.13;;;18.50;;
8652;SDS011;4364;52.426;9.424;2023-02-20T09:26:22;30.20;;;18.03;;
8652;SDS011;4364;52.426;9.424;2023-02-20T09:28:48;30.57;;;17.80;;
8652;SDS011;4364;52.426;9.424;2023-02-20T09:31:15;31.20;;;17.97;;
8652;SDS011;4364;52.426;9.424;2023-02-20T09:33:45;30.53;;;17.63;;
8652;SDS011;4364;52.426;9.424;2023-02-20T09:36:16;32.10;;;18.10;;
8652;SDS011;4364;52.426;9.424;2023-02-20T09:38:43;33.50;;;17.77;;
8652;SDS011;4364;52.426;9.424;2023-02-20T09:41:12;32.03;;;19.07;;
8652;SDS011;4364;52.426;9.424;2023-02-20T09:43:56;29.13;;;17.57;;
8652;SDS011;4364;52.426;9.424;2023-02-20T09:46:30;33.63;;;17.90;;
8652;SDS011;4364;52.426;9.424;2023-02-20T09:48:59;31.20;;;17.97;;
8652;SDS011;4364;52.426;9.424;2023-02-20T09:52:04;29.43;;;17.80;;
8652;SDS011;4364;52.426;9.424;2023-02-20T09:54:36;27.93;;;18.03;;
8652;SDS011;4364;52.426;9.424;2023-02-20T09:57:12;31.83;;;18.03;;
8652;SDS011;4364;52.426;9.424;2023-02-20T09:59:52;31.63;;;17.90;;
8652;SDS011;4364;52.426;9.424;2023-02-20T10:02:22;31.13;;;19.40;;
8652;SDS011;4364;52.426;9.424;2023-02-20T10:04:53;33.03;;;20.60;;
8652;SDS011;4364;52.426;9.424;2023-02-20T10:07:32;36.73;;;19.50;;
8652;SDS011;4364;52.426;9.424;2023-02-20T10:10:36;33.13;;;19.87;;
8652;SDS011;4364;52.426;9.424;2023-02-20T10:18:33;33.77;;;19.83;;
8652;SDS011;4364;52.426;9.424;2023-02-20T10:26:34;33.73;;;20.00;;
8652;SDS011;4364;52.426;9.424;2023-02-20T10:29:19;38.90;;;21.23;;
8652;SDS011;4364;52.426;9.424;2023-02-20T10:34:40;34.40;;;20.83;;
8652;SDS011;4364;52.426;9.424;2023-02-20T10:37:22;36.20;;;21.03;;
8652;SDS011;4364;52.426;9.424;2023-02-20T10:40:11;39.83;;;21.27;;
8652;SDS011;4364;52.426;9.424;2023-02-20T10:42:49;32.30;;;20.67;;
8652;SDS011;4364;52.426;9.424;2023-02-20T10:48:14;36.13;;;21.27;;
8652;SDS011;4364;52.426;9.424;2023-02-20T10:50:46;36.53;;;22.37;;
8652;SDS011;4364;52.426;9.424;2023-02-20T10:56:10;37.60;;;21.97;;
8652;SDS011;4364;52.426;9.424;2023-02-20T10:58:56;36.60;;;21.53;;
8652;SDS011;4364;52.426;9.424;2023-02-20T11:01:33;39.53;;;22.63;;
8652;SDS011;4364;52.426;9.424;2023-02-20T11:04:02;41.90;;;22.40;;
8652;SDS011;4364;52.426;9.424;2023-02-20T11:06:35;41.50;;;22.90;;
8652;SDS011;4364;52.426;9.424;2023-02-20T11:09:07;39.50;;;22.30;;
8652;SDS011;4364;52.426;9.424;2023-02-20T11:11:42;40.37;;;23.57;;
8652;SDS011;4364;52.426;9.424;2023-02-20T11:19:42;46.83;;;23.37;;
8652;SDS011;4364;52.426;9.424;2023-02-20T11:22:10;39.50;;;22.37;;
8652;SDS011;4364;52.426;9.424;2023-02-20T11:24:38;40.13;;;22.00;;
8652;SDS011;4364;52.426;9.424;2023-02-20T11:27:27;39.10;;;21.00;;
8652;SDS011;4364;52.426;9.424;2023-02-20T11:29:54;43.87;;;22.23;;
8652;SDS011;4364;52.426;9.424;2023-02-20T11:32:35;36.13;;;21.23;;
8652;SDS011;4364;52.426;9.424;2023-02-20T11:37:48;39.10;;;21.80;;
8652;SDS011;4364;52.426;9.424;2023-02-20T11:40:28;48.13;;;23.00;;
8652;SDS011;4364;52.426;9.424;2023-02-20T11:43:18;37.23;;;22.00;;
8652;SDS011;4364;52.426;9.424;2023-02-20T11:45:47;38.17;;;21.87;;
8652;SDS011;4364;52.426;9.424;2023-02-20T11:53:28;39.07;;;22.03;;
8652;SDS011;4364;52.426;9.424;2023-02-20T11:58:39;43.97;;;22.03;;
8652;SDS011;4364;52.426;9.424;2023-02-20T12:01:11;41.97;;;22.87;;
8652;SDS011;4364;52.426;9.424;2023-02-20T12:03:57;40.67;;;21.40;;
8652;SDS011;4364;52.426;9.424;2023-02-20T12:09:00;43.57;;;22.97;;
8652;SDS011;4364;52.426;9.424;2023-02-20T12:11:29;39.23;;;22.13;;
8652;SDS011;4364;52.426;9.424;2023-02-20T12:13:57;46.47;;;23.00;;
8652;SDS011;4364;52.426;9.424;2023-02-20T12:16:34;41.60;;;21.73;;
8652;SDS011;4364;52.426;9.424;2023-02-20T12:24:46;42.63;;;21.47;;
8652;SDS011;4364;52.426;9.424;2023-02-20T12:33:31;43.53;;;20.20;;
8652;SDS011;4364;52.426;9.424;2023-02-20T12:36:29;46.40;;;23.20;;
8652;SDS011;4364;52.426;9.424;2023-02-20T12:39:04;45.23;;;22.03;;
8652;SDS011;4364;52.426;9.424;2023-02-20T12:41:43;40.73;;;22.00;;
8652;SDS011;4364;52.426;9.424;2023-02-20T12:52:48;45.60;;;22.03;;
8652;SDS011;4364;52.426;9.424;2023-02-20T12:58:13;43.70;;;21.30;;
8652;SDS011;4364;52.426;9.424;2023-02-20T13:00:49;45.47;;;22.70;;
8652;SDS011;4364;52.426;9.424;2023-02-20T13:03:23;42.97;;;20.50;;
8652;SDS011;4364;52.426;9.424;2023-02-20T13:05:54;41.33;;;20.10;;
8652;SDS011;4364;52.426;9.424;2023-02-20T13:08:26;44.60;;;22.60;;
8652;SDS011;4364;52.426;9.424;2023-02-20T13:10:57;41.30;;;20.77;;
8652;SDS011;4364;52.426;9.424;2023-02-20T13:16:30;41.93;;;21.33;;
8652;SDS011;4364;52.426;9.424;2023-02-20T13:19:10;41.07;;;20.60;;
8652;SDS011;4364;52.426;9.424;2023-02-20T13:21:46;38.73;;;21.17;;
8652;SDS011;4364;52.426;9.424;2023-02-20T13:26:49;39.90;;;20.50;;
8652;SDS011;4364;52.426;9.424;2023-02-20T13:29:18;40.40;;;19.40;;
8652;SDS011;4364;52.426;9.424;2023-02-20T13:31:49;35.77;;;18.97;;
8652;SDS011;4364;52.426;9.424;2023-02-20T13:36:47;40.70;;;19.57;;
8652;SDS011;4364;52.426;9.424;2023-02-20T13:46:57;40.87;;;19.20;;
8652;SDS011;4364;52.426;9.424;2023-02-20T13:54:58;34.67;;;17.67;;
8652;SDS011;4364;52.426;9.424;2023-02-20T13:57:43;34.03;;;18.47;;
8652;SDS011;4364;52.426;9.424;2023-02-20T14:03:16;37.03;;;19.00;;
8652;SDS011;4364;52.426;9.424;2023-02-20T14:06:14;34.13;;;17.33;;
8652;SDS011;4364;52.426;9.424;2023-02-20T14:08:43;32.60;;;16.93;;
8652;SDS011;4364;52.426;9.424;2023-02-20T14:13:49;34.47;;;17.70;;
8652;SDS011;4364;52.426;9.424;2023-02-20T14:16:22;35.03;;;17.03;;
8652;SDS011;4364;52.426;9.424;2023-02-20T14:18:59;30.67;;;17.40;;
8652;SDS011;4364;52.426;9.424;2023-02-20T14:21:27;31.00;;;16.20;;
8652;SDS011;4364;52.426;9.424;2023-02-20T14:23:55;36.00;;;17.40;;
8652;SDS011;4364;52.426;9.424;2023-02-20T14:26:27;31.97;;;16.60;;
8652;SDS011;4364;52.426;9.424;2023-02-20T14:28:56;31.50;;;16.90;;
8652;SDS011;4364;52.426;9.424;2023-02-20T14:31:25;32.73;;;16.77;;
8652;SDS011;4364;52.426;9.424;2023-02-20T14:34:01;33.27;;;15.50;;
8652;SDS011;4364;52.426;9.424;2023-02-20T14:39:38;34.07;;;16.60;;
8652;SDS011;4364;52.426;9.424;2023-02-20T14:42:29;30.60;;;16.03;;
8652;SDS011;4364;52.426;9.424;2023-02-20T14:45:00;30.53;;;16.53;;
8652;SDS011;4364;52.426;9.424;2023-02-20T14:47:31;31.87;;;16.97;;
8652;SDS011;4364;52.426;9.424;2023-02-20T14:50:40;33.33;;;17.10;;
8652;SDS011;4364;52.426;9.424;2023-02-20T14:53:11;34.83;;;16.57;;
8652;SDS011;4364;52.426;9.424;2023-02-20T14:55:39;28.53;;;16.27;;
8652;SDS011;4364;52.426;9.424;2023-02-20T14:58:06;34.27;;;17.60;;
8652;SDS011;4364;52.426;9.424;2023-02-20T15:00:37;35.40;;;17.37;;
8652;SDS011;4364;52.426;9.424;2023-02-20T15:03:07;32.77;;;16.83;;
8652;SDS011;4364;52.426;9.424;2023-02-20T15:05:53;29.93;;;16.70;;
8652;SDS011;4364;52.426;9.424;2023-02-20T15:08:24;32.23;;;16.50;;
8652;SDS011;4364;52.426;9.424;2023-02-20T15:10:56;35.67;;;17.00;;
8652;SDS011;4364;52.426;9.424;2023-02-20T15:13:34;33.97;;;16.57;;
8652;SDS011;4364;52.426;9.424;2023-02-20T15:16:07;33.77;;;17.60;;
8652;SDS011;4364;52.426;9.424;2023-02-20T15:18:42;30.83;;;16.60;;
8652;SDS011;4364;52.426;9.424;2023-02-20T15:21:31;31.73;;;16.50;;
8652;SDS011;4364;52.426;9.424;2023-02-20T15:26:51;32.10;;;16.33;;
8652;SDS011;4364;52.426;9.424;2023-02-20T15:29:21;28.23;;;14.43;;
8652;SDS011;4364;52.426;9.424;2023-02-20T15:31:56;29.63;;;15.43;;
8652;SDS011;4364;52.426;9.424;2023-02-20T15:36:56;27.60;;;14.70;;
8652;SDS011;4364;52.426;9.424;2023-02-20T15:39:24;26.03;;;14.93;;
8652;SDS011;4364;52.426;9.424;2023-02-20T15:41:51;26.33;;;14.30;;
8652;SDS011;4364;52.426;9.424;2023-02-20T15:44:23;28.33;;;14.30;;
8652;SDS011;4364;52.426;9.424;2023-02-20T15:46:50;26.20;;;14.73;;
8652;SDS011;4364;52.426;9.424;2023-02-20T15:49:17;23.73;;;14.47;;
8652;SDS011;4364;52.426;9.424;2023-02-20T15:51:46;24.03;;;13.50;;
8652;SDS011;4364;52.426;9.424;2023-02-20T15:54:15;25.67;;;14.40;;
8652;SDS011;4364;52.426;9.424;2023-02-20T15:56:42;27.77;;;14.57;;
8652;SDS011;4364;52.426;9.424;2023-02-20T15:59:10;26.67;;;14.23;;
8652;SDS011;4364;52.426;9.424;2023-02-20T16:01:37;29.03;;;14.57;;
8652;SDS011;4364;52.426;9.424;2023-02-20T16:04:09;23.23;;;13.37;;
8652;SDS011;4364;52.426;9.424;2023-02-20T16:06:41;25.63;;;14.87;;
8652;SDS011;4364;52.426;9.424;2023-02-20T16:09:09;24.57;;;13.40;;
8652;SDS011;4364;52.426;9.424;2023-02-20T16:11:37;21.80;;;12.97;;
8652;SDS011;4364;52.426;9.424;2023-02-20T16:14:06;24.33;;;13.50;;
8652;SDS011;4364;52.426;9.424;2023-02-20T16:16:38;27.03;;;14.40;;
8652;SDS011;4364;52.426;9.424;2023-02-20T16:19:15;24.30;;;13.97;;
8652;SDS011;4364;52.426;9.424;2023-02-20T16:21:44;23.40;;;13.97;;
8652;SDS011;4364;52.426;9.424;2023-02-20T16:24:24;22.97;;;13.30;;
8652;SDS011;4364;52.426;9.424;2023-02-20T16:26:50;22.27;;;13.40;;
8652;SDS011;4364;52.426;9.424;2023-02-20T16:29:27;25.17;;;13.80;;
8652;SDS011;4364;52.426;9.424;2023-02-20T16:34:28;27.73;;;14.50;;
8652;SDS011;4364;52.426;9.424;2023-02-20T16:36:57;23.70;;;13.87;;
8652;SDS011;4364;52.426;9.424;2023-02-20T16:39:24;25.27;;;13.93;;
8652;SDS011;4364;52.426;9.424;2023-02-20T16:41:53;23.60;;;13.67;;
8652;SDS011;4364;52.426;9.424;2023-02-20T16:44:27;24.23;;;12.97;;
8652;SDS011;4364;52.426;9.424;2023-02-20T16:46:56;24.47;;;13.30;;
8652;SDS011;4364;52.426;9.424;2023-02-20T16:49:23;22.37;;;12.60;;
8652;SDS011;4364;52.426;9.424;2023-02-20T16:51:49;24.30;;;14.07;;
8652;SDS011;4364;52.426;9.424;2023-02-20T16:54:24;23.80;;;14.40;;
8652;SDS011;4364;52.426;9.424;2023-02-20T16:56:51;23.37;;;14.03;;
8652;SDS011;4364;52.426;9.424;2023-02-20T16:59:17;22.63;;;13.80;;
8652;SDS011;4364;52.426;9.424;2023-02-20T17:01:45;25.13;;;13.60;;
8652;SDS011;4364;52.426;9.424;2023-02-20T17:04:11;24.30;;;14.03;;
8652;SDS011;4364;52.426;9.424;2023-02-20T17:06:39;22.03;;;12.83;;
8652;SDS011;4364;52.426;9.424;2023-02-20T17:09:06;22.47;;;13.37;;
8652;SDS011;4364;52.426;9.424;2023-02-20T17:11:32;23.57;;;13.20;;